This is the latest recevied weather packets stored in our database for station/object K6FW. If no packets are shown the sender has not sent any weather packets the latest 10 day(s).
| Time | Temp. | Humidity | Pressure | Rain* | Wind** | Luminosity | Snow |
|---|---|---|---|---|---|---|---|
| 1777350664 | 13.89° C | 63% | 1017.4 hPa | 0 mm | - | 0 W/m² | - |
| 1777347970 | 14.44° C | 60% | 1017.2 hPa | 0 mm | - | 0 W/m² | - |
| 1777342558 | 16.67° C | 57% | 1015.5 hPa | 0 mm | - | 16 W/m² | - |
| 1777341661 | 17.22° C | 55% | 1015.6 hPa | 0 mm | - | 39 W/m² | - |
| 1777340760 | 17.22° C | 53% | 1015.4 hPa | 0 mm | - | 63 W/m² | - |
| 1777338957 | 18.33° C | 49% | 1015.3 hPa | 0 mm | - | 155 W/m² | - |
| 1777332659 | 19.44° C | 42% | 1015.1 hPa | 0 mm | - | 538 W/m² | - |
| 1777331757 | 20° C | 40% | 1015.1 hPa | 0 mm | - | 612 W/m² | - |
| 1777329060 | 20° C | 39% | 1015.3 hPa | 0 mm | - | 768 W/m² | - |
| 1777325470 | 18.89° C | 43% | 1015.8 hPa | 0 mm | - | 1194 W/m² | - |
| 1777318256 | 18.89° C | 46% | 1016.4 hPa | 0 mm | - | 624 W/m² | - |
| 1777311958 | 16.67° C | 48% | 1016.2 hPa | 0 mm | - | 292 W/m² | - |
| 1777306559 | 15° C | 68% | 1015.9 hPa | 0 mm | - | 322 W/m² | - |
| 1777305659 | 14.44° C | 74% | 1015.8 hPa | 0 mm | - | 376 W/m² | - |
| 1777304758 | 13.89° C | 78% | 1016 hPa | 0 mm | - | 301 W/m² | - |
| 1777302957 | 12.78° C | 84% | 1015.9 hPa | 0 mm | - | 214 W/m² | - |
| 1777293965 | 11.67° C | 85% | 1014.9 hPa | 0 mm | - | 0 W/m² | - |
| 1777284958 | 12.22° C | 75% | 1015.3 hPa | 0 mm | - | 0 W/m² | - |
| 1777266059 | 13.33° C | 72% | 1015.8 hPa | 0 mm | - | 0 W/m² | - |
| 1777264256 | 13.89° C | 71% | 1015.6 hPa | 0 mm | - | 0 W/m² | - |
| 1777257060 | 15° C | 65% | 1014.6 hPa | 0 mm | - | 0 W/m² | - |
| 1777254360 | 16.11° C | 60% | 1014.5 hPa | 0 mm | - | 37 W/m² | - |
| 1777252560 | 16.67° C | 56% | 1014.1 hPa | 0 mm | - | 160 W/m² | - |
| 1777244465 | 18.89° C | 48% | 1013.6 hPa | 0 mm | - | 726 W/m² | - |
| 1777234558 | 18.33° C | 49% | 1013.6 hPa | 0 mm | - | 313 W/m² | - |
* Rain latest hour (hover to see other rain measurements)
** Current wind speed in m/s (hover to see current wind gust speed)